Index of /20260414/WXO-DD/model_rdps/10km/18/022
Name Last modified Size Description
Parent Directory -
20260414T18Z_MSC_RDPS_AbsoluteVorticity_IsbL-0250_RLatLon0.09_PT022H.grib2 2026-04-14 20:44 594K
20260414T18Z_MSC_RDPS_AbsoluteVorticity_IsbL-0500_RLatLon0.09_PT022H.grib2 2026-04-14 20:44 551K
20260414T18Z_MSC_RDPS_AbsoluteVorticity_IsbL-0700_RLatLon0.09_PT022H.grib2 2026-04-14 20:44 611K
20260414T18Z_MSC_RDPS_AbsoluteVorticity_IsbL-0850_RLatLon0.09_PT022H.grib2 2026-04-14 20:44 928K
20260414T18Z_MSC_RDPS_AirTemp_AGL-120m_RLatLon0.09_PT022H.grib2 2026-04-14 20:44 386K
20260414T18Z_MSC_RDPS_AirTemp_AGL-2m_RLatLon0.09_PT022H.grib2 2026-04-14 20:44 647K
20260414T18Z_MSC_RDPS_AirTemp_AGL-40m_RLatLon0.09_PT022H.grib2 2026-04-14 20:44 415K
20260414T18Z_MSC_RDPS_AirTemp_AGL-80m_RLatLon0.09_PT022H.grib2 2026-04-14 20:44 392K
20260414T18Z_MSC_RDPS_AirTemp_IsbL-0001_RLatLon0.09_PT022H.grib2 2026-04-14 20:44 317K
20260414T18Z_MSC_RDPS_AirTemp_IsbL-0005_RLatLon0.09_PT022H.grib2 2026-04-14 20:44 251K
20260414T18Z_MSC_RDPS_AirTemp_IsbL-0010_RLatLon0.09_PT022H.grib2 2026-04-14 20:44 339K
20260414T18Z_MSC_RDPS_AirTemp_IsbL-0020_RLatLon0.09_PT022H.grib2 2026-04-14 20:44 354K
20260414T18Z_MSC_RDPS_AirTemp_IsbL-0030_RLatLon0.09_PT022H.grib2 2026-04-14 20:44 376K
20260414T18Z_MSC_RDPS_AirTemp_IsbL-0050_RLatLon0.09_PT022H.grib2 2026-04-14 20:44 325K
20260414T18Z_MSC_RDPS_AirTemp_IsbL-0100_RLatLon0.09_PT022H.grib2 2026-04-14 20:44 389K
20260414T18Z_MSC_RDPS_AirTemp_IsbL-0150_RLatLon0.09_PT022H.grib2 2026-04-14 20:44 398K
20260414T18Z_MSC_RDPS_AirTemp_IsbL-0175_RLatLon0.09_PT022H.grib2 2026-04-14 20:44 395K
20260414T18Z_MSC_RDPS_AirTemp_IsbL-0200_RLatLon0.09_PT022H.grib2 2026-04-14 20:44 401K
20260414T18Z_MSC_RDPS_AirTemp_IsbL-0225_RLatLon0.09_PT022H.grib2 2026-04-14 20:44 405K
20260414T18Z_MSC_RDPS_AirTemp_IsbL-0250_RLatLon0.09_PT022H.grib2 2026-04-14 20:44 413K
20260414T18Z_MSC_RDPS_AirTemp_IsbL-0275_RLatLon0.09_PT022H.grib2 2026-04-14 20:44 398K
20260414T18Z_MSC_RDPS_AirTemp_IsbL-0300_RLatLon0.09_PT022H.grib2 2026-04-14 20:44 430K
20260414T18Z_MSC_RDPS_AirTemp_IsbL-0350_RLatLon0.09_PT022H.grib2 2026-04-14 20:44 415K
20260414T18Z_MSC_RDPS_AirTemp_IsbL-0400_RLatLon0.09_PT022H.grib2 2026-04-14 20:44 381K
20260414T18Z_MSC_RDPS_AirTemp_IsbL-0450_RLatLon0.09_PT022H.grib2 2026-04-14 20:44 387K
20260414T18Z_MSC_RDPS_AirTemp_IsbL-0500_RLatLon0.09_PT022H.grib2 2026-04-14 20:44 400K
20260414T18Z_MSC_RDPS_AirTemp_IsbL-0550_RLatLon0.09_PT022H.grib2 2026-04-14 20:44 417K
20260414T18Z_MSC_RDPS_AirTemp_IsbL-0600_RLatLon0.09_PT022H.grib2 2026-04-14 20:44 435K
20260414T18Z_MSC_RDPS_AirTemp_IsbL-0650_RLatLon0.09_PT022H.grib2 2026-04-14 20:44 346K
20260414T18Z_MSC_RDPS_AirTemp_IsbL-0700_RLatLon0.09_PT022H.grib2 2026-04-14 20:44 368K
20260414T18Z_MSC_RDPS_AirTemp_IsbL-0750_RLatLon0.09_PT022H.grib2 2026-04-14 20:44 406K
20260414T18Z_MSC_RDPS_AirTemp_IsbL-0800_RLatLon0.09_PT022H.grib2 2026-04-14 20:44 458K
20260414T18Z_MSC_RDPS_AirTemp_IsbL-0850_RLatLon0.09_PT022H.grib2 2026-04-14 20:44 504K
20260414T18Z_MSC_RDPS_AirTemp_IsbL-0875_RLatLon0.09_PT022H.grib2 2026-04-14 20:44 517K
20260414T18Z_MSC_RDPS_AirTemp_IsbL-0900_RLatLon0.09_PT022H.grib2 2026-04-14 20:44 526K
20260414T18Z_MSC_RDPS_AirTemp_IsbL-0925_RLatLon0.09_PT022H.grib2 2026-04-14 20:44 530K
20260414T18Z_MSC_RDPS_AirTemp_IsbL-0950_RLatLon0.09_PT022H.grib2 2026-04-14 20:44 536K
20260414T18Z_MSC_RDPS_AirTemp_IsbL-0970_RLatLon0.09_PT022H.grib2 2026-04-14 20:44 533K
20260414T18Z_MSC_RDPS_AirTemp_IsbL-0985_RLatLon0.09_PT022H.grib2 2026-04-14 20:44 532K
20260414T18Z_MSC_RDPS_AirTemp_IsbL-1000_RLatLon0.09_PT022H.grib2 2026-04-14 20:44 519K
20260414T18Z_MSC_RDPS_AirTemp_IsbL-1015_RLatLon0.09_PT022H.grib2 2026-04-14 20:44 516K
20260414T18Z_MSC_RDPS_Albedo_Sfc_RLatLon0.09_PT022H.grib2 2026-04-14 20:44 166K
20260414T18Z_MSC_RDPS_CAPE_Sfc_RLatLon0.09_PT022H.grib2 2026-04-14 20:44 1.7M
20260414T18Z_MSC_RDPS_CIN_Sfc_RLatLon0.09_PT022H.grib2 2026-04-14 20:44 1.2M
20260414T18Z_MSC_RDPS_CloudWater_EAtm_RLatLon0.09_PT022H.grib2 2026-04-14 20:44 208K
20260414T18Z_MSC_RDPS_ConvectivePrecip-Accum_Sfc_RLatLon0.09_PT022H.grib2 2026-04-14 20:44 864K
20260414T18Z_MSC_RDPS_DewPointDepression_AGL-2m_RLatLon0.09_PT022H.grib2 2026-04-14 20:44 409K
20260414T18Z_MSC_RDPS_DewPointDepression_IsbL-0001_RLatLon0.09_PT022H.grib2 2026-04-14 20:44 193
20260414T18Z_MSC_RDPS_DewPointDepression_IsbL-0005_RLatLon0.09_PT022H.grib2 2026-04-14 20:44 193
20260414T18Z_MSC_RDPS_DewPointDepression_IsbL-0010_RLatLon0.09_PT022H.grib2 2026-04-14 20:44 193
20260414T18Z_MSC_RDPS_DewPointDepression_IsbL-0020_RLatLon0.09_PT022H.grib2 2026-04-14 20:44 193
20260414T18Z_MSC_RDPS_DewPointDepression_IsbL-0030_RLatLon0.09_PT022H.grib2 2026-04-14 20:44 23K
20260414T18Z_MSC_RDPS_DewPointDepression_IsbL-0050_RLatLon0.09_PT022H.grib2 2026-04-14 20:44 106K
20260414T18Z_MSC_RDPS_DewPointDepression_IsbL-0100_RLatLon0.09_PT022H.grib2 2026-04-14 20:44 123K
20260414T18Z_MSC_RDPS_DewPointDepression_IsbL-0150_RLatLon0.09_PT022H.grib2 2026-04-14 20:44 138K
20260414T18Z_MSC_RDPS_DewPointDepression_IsbL-0175_RLatLon0.09_PT022H.grib2 2026-04-14 20:44 161K
20260414T18Z_MSC_RDPS_DewPointDepression_IsbL-0200_RLatLon0.09_PT022H.grib2 2026-04-14 20:44 193K
20260414T18Z_MSC_RDPS_DewPointDepression_IsbL-0225_RLatLon0.09_PT022H.grib2 2026-04-14 20:44 236K
20260414T18Z_MSC_RDPS_DewPointDepression_IsbL-0250_RLatLon0.09_PT022H.grib2 2026-04-14 20:44 281K
20260414T18Z_MSC_RDPS_DewPointDepression_IsbL-0275_RLatLon0.09_PT022H.grib2 2026-04-14 20:44 297K
20260414T18Z_MSC_RDPS_DewPointDepression_IsbL-0300_RLatLon0.09_PT022H.grib2 2026-04-14 20:44 318K
20260414T18Z_MSC_RDPS_DewPointDepression_IsbL-0350_RLatLon0.09_PT022H.grib2 2026-04-14 20:44 320K
20260414T18Z_MSC_RDPS_DewPointDepression_IsbL-0400_RLatLon0.09_PT022H.grib2 2026-04-14 20:44 332K
20260414T18Z_MSC_RDPS_DewPointDepression_IsbL-0450_RLatLon0.09_PT022H.grib2 2026-04-14 20:44 337K
20260414T18Z_MSC_RDPS_DewPointDepression_IsbL-0500_RLatLon0.09_PT022H.grib2 2026-04-14 20:44 339K
20260414T18Z_MSC_RDPS_DewPointDepression_IsbL-0550_RLatLon0.09_PT022H.grib2 2026-04-14 20:44 353K
20260414T18Z_MSC_RDPS_DewPointDepression_IsbL-0600_RLatLon0.09_PT022H.grib2 2026-04-14 20:44 362K
20260414T18Z_MSC_RDPS_DewPointDepression_IsbL-0650_RLatLon0.09_PT022H.grib2 2026-04-14 20:44 370K
20260414T18Z_MSC_RDPS_DewPointDepression_IsbL-0700_RLatLon0.09_PT022H.grib2 2026-04-14 20:44 382K
20260414T18Z_MSC_RDPS_DewPointDepression_IsbL-0750_RLatLon0.09_PT022H.grib2 2026-04-14 20:44 402K
20260414T18Z_MSC_RDPS_DewPointDepression_IsbL-0800_RLatLon0.09_PT022H.grib2 2026-04-14 20:44 438K
20260414T18Z_MSC_RDPS_DewPointDepression_IsbL-0850_RLatLon0.09_PT022H.grib2 2026-04-14 20:44 466K
20260414T18Z_MSC_RDPS_DewPointDepression_IsbL-0875_RLatLon0.09_PT022H.grib2 2026-04-14 20:44 465K
20260414T18Z_MSC_RDPS_DewPointDepression_IsbL-0900_RLatLon0.09_PT022H.grib2 2026-04-14 20:44 459K
20260414T18Z_MSC_RDPS_DewPointDepression_IsbL-0925_RLatLon0.09_PT022H.grib2 2026-04-14 20:44 449K
20260414T18Z_MSC_RDPS_DewPointDepression_IsbL-0950_RLatLon0.09_PT022H.grib2 2026-04-14 20:44 447K
20260414T18Z_MSC_RDPS_DewPointDepression_IsbL-0970_RLatLon0.09_PT022H.grib2 2026-04-14 20:44 442K
20260414T18Z_MSC_RDPS_DewPointDepression_IsbL-0985_RLatLon0.09_PT022H.grib2 2026-04-14 20:44 437K
20260414T18Z_MSC_RDPS_DewPointDepression_IsbL-1000_RLatLon0.09_PT022H.grib2 2026-04-14 20:44 433K
20260414T18Z_MSC_RDPS_DewPointDepression_IsbL-1015_RLatLon0.09_PT022H.grib2 2026-04-14 20:44 428K
20260414T18Z_MSC_RDPS_DewPoint_AGL-2m_RLatLon0.09_PT022H.grib2 2026-04-14 20:44 406K
20260414T18Z_MSC_RDPS_DownwardLongwaveRadiationFlux-Accum_Sfc_RLatLon0.09_PT022H.grib2 2026-04-14 20:44 418K
20260414T18Z_MSC_RDPS_DownwardShortwaveRadiationFlux-Accum_NTAtm_RLatLon0.09_PT022H.grib2 2026-04-14 20:44 148K
20260414T18Z_MSC_RDPS_DownwardShortwaveRadiationFlux-Accum_Sfc_RLatLon0.09_PT022H.grib2 2026-04-14 20:44 587K
20260414T18Z_MSC_RDPS_FreezingRain-Accum1h_Sfc_RLatLon0.09_PT022H.grib2 2026-04-14 20:44 17K
20260414T18Z_MSC_RDPS_FreezingRain-Accum_Sfc_RLatLon0.09_PT022H.grib2 2026-04-14 20:44 86K
20260414T18Z_MSC_RDPS_GeopotentialHeight_IsbL-0001_RLatLon0.09_PT022H.grib2 2026-04-14 20:44 211K
20260414T18Z_MSC_RDPS_GeopotentialHeight_IsbL-0005_RLatLon0.09_PT022H.grib2 2026-04-14 20:44 267K
20260414T18Z_MSC_RDPS_GeopotentialHeight_IsbL-0010_RLatLon0.09_PT022H.grib2 2026-04-14 20:44 307K
20260414T18Z_MSC_RDPS_GeopotentialHeight_IsbL-0020_RLatLon0.09_PT022H.grib2 2026-04-14 20:44 306K
20260414T18Z_MSC_RDPS_GeopotentialHeight_IsbL-0030_RLatLon0.09_PT022H.grib2 2026-04-14 20:44 308K
20260414T18Z_MSC_RDPS_GeopotentialHeight_IsbL-0050_RLatLon0.09_PT022H.grib2 2026-04-14 20:44 237K
20260414T18Z_MSC_RDPS_GeopotentialHeight_IsbL-0100_RLatLon0.09_PT022H.grib2 2026-04-14 20:44 220K
20260414T18Z_MSC_RDPS_GeopotentialHeight_IsbL-0150_RLatLon0.09_PT022H.grib2 2026-04-14 20:44 261K
20260414T18Z_MSC_RDPS_GeopotentialHeight_IsbL-0175_RLatLon0.09_PT022H.grib2 2026-04-14 20:44 262K
20260414T18Z_MSC_RDPS_GeopotentialHeight_IsbL-0200_RLatLon0.09_PT022H.grib2 2026-04-14 20:44 262K
20260414T18Z_MSC_RDPS_GeopotentialHeight_IsbL-0225_RLatLon0.09_PT022H.grib2 2026-04-14 20:44 263K
20260414T18Z_MSC_RDPS_GeopotentialHeight_IsbL-0250_RLatLon0.09_PT022H.grib2 2026-04-14 20:44 264K
20260414T18Z_MSC_RDPS_GeopotentialHeight_IsbL-0275_RLatLon0.09_PT022H.grib2 2026-04-14 20:44 263K
20260414T18Z_MSC_RDPS_GeopotentialHeight_IsbL-0300_RLatLon0.09_PT022H.grib2 2026-04-14 20:44 263K
20260414T18Z_MSC_RDPS_GeopotentialHeight_IsbL-0350_RLatLon0.09_PT022H.grib2 2026-04-14 20:44 260K
20260414T18Z_MSC_RDPS_GeopotentialHeight_IsbL-0400_RLatLon0.09_PT022H.grib2 2026-04-14 20:44 256K
20260414T18Z_MSC_RDPS_GeopotentialHeight_IsbL-0450_RLatLon0.09_PT022H.grib2 2026-04-14 20:44 221K
20260414T18Z_MSC_RDPS_GeopotentialHeight_IsbL-0500_RLatLon0.09_PT022H.grib2 2026-04-14 20:44 217K
20260414T18Z_MSC_RDPS_GeopotentialHeight_IsbL-0550_RLatLon0.09_PT022H.grib2 2026-04-14 20:44 283K
20260414T18Z_MSC_RDPS_GeopotentialHeight_IsbL-0600_RLatLon0.09_PT022H.grib2 2026-04-14 20:44 278K
20260414T18Z_MSC_RDPS_GeopotentialHeight_IsbL-0650_RLatLon0.09_PT022H.grib2 2026-04-14 20:44 276K
20260414T18Z_MSC_RDPS_GeopotentialHeight_IsbL-0700_RLatLon0.09_PT022H.grib2 2026-04-14 20:44 276K
20260414T18Z_MSC_RDPS_GeopotentialHeight_IsbL-0750_RLatLon0.09_PT022H.grib2 2026-04-14 20:44 251K
20260414T18Z_MSC_RDPS_GeopotentialHeight_IsbL-0800_RLatLon0.09_PT022H.grib2 2026-04-14 20:44 343K
20260414T18Z_MSC_RDPS_GeopotentialHeight_IsbL-0850_RLatLon0.09_PT022H.grib2 2026-04-14 20:44 387K
20260414T18Z_MSC_RDPS_GeopotentialHeight_IsbL-0875_RLatLon0.09_PT022H.grib2 2026-04-14 20:44 390K
20260414T18Z_MSC_RDPS_GeopotentialHeight_IsbL-0900_RLatLon0.09_PT022H.grib2 2026-04-14 20:44 393K
20260414T18Z_MSC_RDPS_GeopotentialHeight_IsbL-0925_RLatLon0.09_PT022H.grib2 2026-04-14 20:44 396K
20260414T18Z_MSC_RDPS_GeopotentialHeight_IsbL-0950_RLatLon0.09_PT022H.grib2 2026-04-14 20:44 399K
20260414T18Z_MSC_RDPS_GeopotentialHeight_IsbL-0970_RLatLon0.09_PT022H.grib2 2026-04-14 20:44 406K
20260414T18Z_MSC_RDPS_GeopotentialHeight_IsbL-0985_RLatLon0.09_PT022H.grib2 2026-04-14 20:44 417K
20260414T18Z_MSC_RDPS_GeopotentialHeight_IsbL-1000_RLatLon0.09_PT022H.grib2 2026-04-14 20:44 431K
20260414T18Z_MSC_RDPS_GeopotentialHeight_IsbL-1015_RLatLon0.09_PT022H.grib2 2026-04-14 20:44 448K
20260414T18Z_MSC_RDPS_Humidex_Sfc_RLatLon0.09_PT022H.grib2 2026-04-14 20:44 2.4M
20260414T18Z_MSC_RDPS_IcePellets-Accum1h_Sfc_RLatLon0.09_PT022H.grib2 2026-04-14 20:44 2.4K
20260414T18Z_MSC_RDPS_IcePellets-Accum_Sfc_RLatLon0.09_PT022H.grib2 2026-04-14 20:44 8.8K
20260414T18Z_MSC_RDPS_KIndex_Sfc_RLatLon0.09_PT022H.grib2 2026-04-14 20:44 2.4M
20260414T18Z_MSC_RDPS_LatentHeatNetFlux_Sfc_RLatLon0.09_PT022H.grib2 2026-04-14 20:44 363K
20260414T18Z_MSC_RDPS_LiftedIndex-MU-VT_IsbL-0500_RLatLon0.09_PT022H.grib2 2026-04-14 20:44 2.4M
20260414T18Z_MSC_RDPS_NetLongwaveRadiationFlux-Accum_Sfc_RLatLon0.09_PT022H.grib2 2026-04-14 20:44 555K
20260414T18Z_MSC_RDPS_NetShortwaveRadiationFlux-Accum_Sfc_RLatLon0.09_PT022H.grib2 2026-04-14 20:44 589K
20260414T18Z_MSC_RDPS_PlanetaryBoundaryLayerHeight_Sfc_RLatLon0.09_PT022H.grib2 2026-04-14 20:44 1.2M
20260414T18Z_MSC_RDPS_Precip-Accum1h_Sfc_RLatLon0.09_PT022H.grib2 2026-04-14 20:44 1.2M
20260414T18Z_MSC_RDPS_Precip-Accum_Sfc_RLatLon0.09_PT022H.grib2 2026-04-14 20:44 1.8M
20260414T18Z_MSC_RDPS_PrecipRate_Sfc_RLatLon0.09_PT022H.grib2 2026-04-14 20:44 161K
20260414T18Z_MSC_RDPS_PrecipType-Instant_Sfc_RLatLon0.09_PT022H.grib2 2026-04-14 20:44 545K
20260414T18Z_MSC_RDPS_Pressure-Trend3h_Sfc_RLatLon0.09_PT022H.grib2 2026-04-14 20:44 1.2M
20260414T18Z_MSC_RDPS_Pressure_MSL_RLatLon0.09_PT022H.grib2 2026-04-14 20:44 329K
20260414T18Z_MSC_RDPS_Pressure_PVU-1.5_RLatLon0.09_PT022H.grib2 2026-04-14 20:44 2.5M
20260414T18Z_MSC_RDPS_Pressure_PVU-1_RLatLon0.09_PT022H.grib2 2026-04-14 20:44 2.4M
20260414T18Z_MSC_RDPS_Pressure_PVU-2_RLatLon0.09_PT022H.grib2 2026-04-14 20:44 2.4M
20260414T18Z_MSC_RDPS_Pressure_Sfc_RLatLon0.09_PT022H.grib2 2026-04-14 20:44 501K
20260414T18Z_MSC_RDPS_RadiativeTemp_Sfc_RLatLon0.09_PT022H.grib2 2026-04-14 20:44 326K
20260414T18Z_MSC_RDPS_Rain-Accum1h_Sfc_RLatLon0.09_PT022H.grib2 2026-04-14 20:44 587K
20260414T18Z_MSC_RDPS_Rain-Accum_Sfc_RLatLon0.09_PT022H.grib2 2026-04-14 20:44 1.4M
20260414T18Z_MSC_RDPS_RelativeHumidity_AGL-2m_RLatLon0.09_PT022H.grib2 2026-04-14 20:44 1.0M
20260414T18Z_MSC_RDPS_RelativeHumidity_IsbL-0010_RLatLon0.09_PT022H.grib2 2026-04-14 20:44 430K
20260414T18Z_MSC_RDPS_RelativeHumidity_IsbL-0020_RLatLon0.09_PT022H.grib2 2026-04-14 20:44 402K
20260414T18Z_MSC_RDPS_RelativeHumidity_IsbL-0030_RLatLon0.09_PT022H.grib2 2026-04-14 20:44 366K
20260414T18Z_MSC_RDPS_RelativeHumidity_IsbL-0050_RLatLon0.09_PT022H.grib2 2026-04-14 20:44 454K
20260414T18Z_MSC_RDPS_RelativeHumidity_IsbL-0100_RLatLon0.09_PT022H.grib2 2026-04-14 20:44 369K
20260414T18Z_MSC_RDPS_RelativeHumidity_IsbL-0150_RLatLon0.09_PT022H.grib2 2026-04-14 20:44 373K
20260414T18Z_MSC_RDPS_RelativeHumidity_IsbL-0175_RLatLon0.09_PT022H.grib2 2026-04-14 20:44 439K
20260414T18Z_MSC_RDPS_RelativeHumidity_IsbL-0200_RLatLon0.09_PT022H.grib2 2026-04-14 20:44 505K
20260414T18Z_MSC_RDPS_RelativeHumidity_IsbL-0225_RLatLon0.09_PT022H.grib2 2026-04-14 20:44 577K
20260414T18Z_MSC_RDPS_RelativeHumidity_IsbL-0250_RLatLon0.09_PT022H.grib2 2026-04-14 20:44 656K
20260414T18Z_MSC_RDPS_RelativeHumidity_IsbL-0275_RLatLon0.09_PT022H.grib2 2026-04-14 20:44 691K
20260414T18Z_MSC_RDPS_RelativeHumidity_IsbL-0300_RLatLon0.09_PT022H.grib2 2026-04-14 20:44 744K
20260414T18Z_MSC_RDPS_RelativeHumidity_IsbL-0350_RLatLon0.09_PT022H.grib2 2026-04-14 20:44 766K
20260414T18Z_MSC_RDPS_RelativeHumidity_IsbL-0400_RLatLon0.09_PT022H.grib2 2026-04-14 20:44 778K
20260414T18Z_MSC_RDPS_RelativeHumidity_IsbL-0450_RLatLon0.09_PT022H.grib2 2026-04-14 20:44 783K
20260414T18Z_MSC_RDPS_RelativeHumidity_IsbL-0500_RLatLon0.09_PT022H.grib2 2026-04-14 20:44 789K
20260414T18Z_MSC_RDPS_RelativeHumidity_IsbL-0550_RLatLon0.09_PT022H.grib2 2026-04-14 20:44 824K
20260414T18Z_MSC_RDPS_RelativeHumidity_IsbL-0600_RLatLon0.09_PT022H.grib2 2026-04-14 20:44 841K
20260414T18Z_MSC_RDPS_RelativeHumidity_IsbL-0650_RLatLon0.09_PT022H.grib2 2026-04-14 20:44 857K
20260414T18Z_MSC_RDPS_RelativeHumidity_IsbL-0700_RLatLon0.09_PT022H.grib2 2026-04-14 20:44 878K
20260414T18Z_MSC_RDPS_RelativeHumidity_IsbL-0750_RLatLon0.09_PT022H.grib2 2026-04-14 20:44 919K
20260414T18Z_MSC_RDPS_RelativeHumidity_IsbL-0800_RLatLon0.09_PT022H.grib2 2026-04-14 20:44 1.0M
20260414T18Z_MSC_RDPS_RelativeHumidity_IsbL-0850_RLatLon0.09_PT022H.grib2 2026-04-14 20:44 1.0M
20260414T18Z_MSC_RDPS_RelativeHumidity_IsbL-0875_RLatLon0.09_PT022H.grib2 2026-04-14 20:44 1.1M
20260414T18Z_MSC_RDPS_RelativeHumidity_IsbL-0900_RLatLon0.09_PT022H.grib2 2026-04-14 20:44 1.1M
20260414T18Z_MSC_RDPS_RelativeHumidity_IsbL-0925_RLatLon0.09_PT022H.grib2 2026-04-14 20:44 1.1M
20260414T18Z_MSC_RDPS_RelativeHumidity_IsbL-0950_RLatLon0.09_PT022H.grib2 2026-04-14 20:44 1.1M
20260414T18Z_MSC_RDPS_RelativeHumidity_IsbL-0970_RLatLon0.09_PT022H.grib2 2026-04-14 20:44 1.1M
20260414T18Z_MSC_RDPS_RelativeHumidity_IsbL-0985_RLatLon0.09_PT022H.grib2 2026-04-14 20:44 1.0M
20260414T18Z_MSC_RDPS_RelativeHumidity_IsbL-1000_RLatLon0.09_PT022H.grib2 2026-04-14 20:44 1.0M
20260414T18Z_MSC_RDPS_RelativeHumidity_IsbL-1015_RLatLon0.09_PT022H.grib2 2026-04-14 20:44 1.0M
20260414T18Z_MSC_RDPS_Runoff-Accum_Sfc_RLatLon0.09_PT022H.grib2 2026-04-14 20:44 37K
20260414T18Z_MSC_RDPS_SWEATIndex_Sfc_RLatLon0.09_PT022H.grib2 2026-04-14 20:44 2.4M
20260414T18Z_MSC_RDPS_SeeingIndex_EAtm_RLatLon0.09_PT022H.grib2 2026-04-14 20:44 1.0M
20260414T18Z_MSC_RDPS_SensibleHeatNetFlux_Sfc_RLatLon0.09_PT022H.grib2 2026-04-14 20:44 355K
20260414T18Z_MSC_RDPS_ShowalterIndex_IsbL-0500_RLatLon0.09_PT022H.grib2 2026-04-14 20:44 2.6M
20260414T18Z_MSC_RDPS_SkyTransparencyIndex_EAtm_RLatLon0.09_PT022H.grib2 2026-04-14 20:44 711K
20260414T18Z_MSC_RDPS_Snow-Accum1h_Sfc_RLatLon0.09_PT022H.grib2 2026-04-14 20:44 439K
20260414T18Z_MSC_RDPS_Snow-Accum_Sfc_RLatLon0.09_PT022H.grib2 2026-04-14 20:44 692K
20260414T18Z_MSC_RDPS_SnowDensity_Sfc_RLatLon0.09_PT022H.grib2 2026-04-14 20:44 173K
20260414T18Z_MSC_RDPS_SnowDepth_Sfc_RLatLon0.09_PT022H.grib2 2026-04-14 20:44 725K
20260414T18Z_MSC_RDPS_SoilTemp_DBS-0to10cm_RLatLon0.09_PT022H.grib2 2026-04-14 20:44 219K
20260414T18Z_MSC_RDPS_SoilTemp_Sfc_RLatLon0.09_PT022H.grib2 2026-04-14 20:44 288K
20260414T18Z_MSC_RDPS_SoilVolumetricIceContent_Sfc_RLatLon0.09_PT022H.grib2 2026-04-14 20:44 176K
20260414T18Z_MSC_RDPS_SoilVolumetricWaterContent_DBS-0to10cm_RLatLon0.09_PT022H.grib2 2026-04-14 20:44 244K
20260414T18Z_MSC_RDPS_SoilVolumetricWaterContent_DBS-0to1cm_RLatLon0.09_PT022H.grib2 2026-04-14 20:44 335K
20260414T18Z_MSC_RDPS_SpecificHumidity_AGL-120m_RLatLon0.09_PT022H.grib2 2026-04-14 20:44 483K
20260414T18Z_MSC_RDPS_SpecificHumidity_AGL-2m_RLatLon0.09_PT022H.grib2 2026-04-14 20:44 649K
20260414T18Z_MSC_RDPS_SpecificHumidity_AGL-40m_RLatLon0.09_PT022H.grib2 2026-04-14 20:44 488K
20260414T18Z_MSC_RDPS_SpecificHumidity_AGL-80m_RLatLon0.09_PT022H.grib2 2026-04-14 20:44 485K
20260414T18Z_MSC_RDPS_SpecificHumidity_IsbL-0001_RLatLon0.09_PT022H.grib2 2026-04-14 20:44 304K
20260414T18Z_MSC_RDPS_SpecificHumidity_IsbL-0005_RLatLon0.09_PT022H.grib2 2026-04-14 20:44 346K
20260414T18Z_MSC_RDPS_SpecificHumidity_IsbL-0010_RLatLon0.09_PT022H.grib2 2026-04-14 20:44 374K
20260414T18Z_MSC_RDPS_SpecificHumidity_IsbL-0020_RLatLon0.09_PT022H.grib2 2026-04-14 20:44 381K
20260414T18Z_MSC_RDPS_SpecificHumidity_IsbL-0030_RLatLon0.09_PT022H.grib2 2026-04-14 20:44 445K
20260414T18Z_MSC_RDPS_SpecificHumidity_IsbL-0050_RLatLon0.09_PT022H.grib2 2026-04-14 20:44 503K
20260414T18Z_MSC_RDPS_SpecificHumidity_IsbL-0100_RLatLon0.09_PT022H.grib2 2026-04-14 20:44 392K
20260414T18Z_MSC_RDPS_SpecificHumidity_IsbL-0150_RLatLon0.09_PT022H.grib2 2026-04-14 20:44 428K
20260414T18Z_MSC_RDPS_SpecificHumidity_IsbL-0175_RLatLon0.09_PT022H.grib2 2026-04-14 20:44 497K
20260414T18Z_MSC_RDPS_SpecificHumidity_IsbL-0200_RLatLon0.09_PT022H.grib2 2026-04-14 20:44 407K
20260414T18Z_MSC_RDPS_SpecificHumidity_IsbL-0225_RLatLon0.09_PT022H.grib2 2026-04-14 20:44 518K
20260414T18Z_MSC_RDPS_SpecificHumidity_IsbL-0250_RLatLon0.09_PT022H.grib2 2026-04-14 20:44 525K
20260414T18Z_MSC_RDPS_SpecificHumidity_IsbL-0275_RLatLon0.09_PT022H.grib2 2026-04-14 20:44 448K
20260414T18Z_MSC_RDPS_SpecificHumidity_IsbL-0300_RLatLon0.09_PT022H.grib2 2026-04-14 20:44 522K
20260414T18Z_MSC_RDPS_SpecificHumidity_IsbL-0350_RLatLon0.09_PT022H.grib2 2026-04-14 20:44 516K
20260414T18Z_MSC_RDPS_SpecificHumidity_IsbL-0400_RLatLon0.09_PT022H.grib2 2026-04-14 20:44 498K
20260414T18Z_MSC_RDPS_SpecificHumidity_IsbL-0450_RLatLon0.09_PT022H.grib2 2026-04-14 20:44 549K
20260414T18Z_MSC_RDPS_SpecificHumidity_IsbL-0500_RLatLon0.09_PT022H.grib2 2026-04-14 20:44 485K
20260414T18Z_MSC_RDPS_SpecificHumidity_IsbL-0550_RLatLon0.09_PT022H.grib2 2026-04-14 20:44 543K
20260414T18Z_MSC_RDPS_SpecificHumidity_IsbL-0600_RLatLon0.09_PT022H.grib2 2026-04-14 20:44 610K
20260414T18Z_MSC_RDPS_SpecificHumidity_IsbL-0650_RLatLon0.09_PT022H.grib2 2026-04-14 20:44 529K
20260414T18Z_MSC_RDPS_SpecificHumidity_IsbL-0700_RLatLon0.09_PT022H.grib2 2026-04-14 20:44 572K
20260414T18Z_MSC_RDPS_SpecificHumidity_IsbL-0750_RLatLon0.09_PT022H.grib2 2026-04-14 20:44 625K
20260414T18Z_MSC_RDPS_SpecificHumidity_IsbL-0800_RLatLon0.09_PT022H.grib2 2026-04-14 20:44 715K
20260414T18Z_MSC_RDPS_SpecificHumidity_IsbL-0850_RLatLon0.09_PT022H.grib2 2026-04-14 20:44 785K
20260414T18Z_MSC_RDPS_SpecificHumidity_IsbL-0875_RLatLon0.09_PT022H.grib2 2026-04-14 20:44 803K
20260414T18Z_MSC_RDPS_SpecificHumidity_IsbL-0900_RLatLon0.09_PT022H.grib2 2026-04-14 20:44 818K
20260414T18Z_MSC_RDPS_SpecificHumidity_IsbL-0925_RLatLon0.09_PT022H.grib2 2026-04-14 20:44 825K
20260414T18Z_MSC_RDPS_SpecificHumidity_IsbL-0950_RLatLon0.09_PT022H.grib2 2026-04-14 20:44 690K
20260414T18Z_MSC_RDPS_SpecificHumidity_IsbL-0970_RLatLon0.09_PT022H.grib2 2026-04-14 20:44 686K
20260414T18Z_MSC_RDPS_SpecificHumidity_IsbL-0985_RLatLon0.09_PT022H.grib2 2026-04-14 20:44 679K
20260414T18Z_MSC_RDPS_SpecificHumidity_IsbL-1000_RLatLon0.09_PT022H.grib2 2026-04-14 20:44 670K
20260414T18Z_MSC_RDPS_SpecificHumidity_IsbL-1015_RLatLon0.09_PT022H.grib2 2026-04-14 20:44 661K
20260414T18Z_MSC_RDPS_SpecificHumidity_Sfc_RLatLon0.09_PT022H.grib2 2026-04-14 20:44 307K
20260414T18Z_MSC_RDPS_StormRelativeHelicity_EtaL-10000_RLatLon0.09_PT022H.grib2 2026-04-14 20:44 1.1M
20260414T18Z_MSC_RDPS_StormSeverityIndex_EtaL-10000_RLatLon0.09_PT022H.grib2 2026-04-14 20:44 1.2M
20260414T18Z_MSC_RDPS_Thickness_IsbL-0850to0700_RLatLon0.09_PT022H.grib2 2026-04-14 20:44 173K
20260414T18Z_MSC_RDPS_Thickness_IsbL-1000to0500_RLatLon0.09_PT022H.grib2 2026-04-14 20:44 197K
20260414T18Z_MSC_RDPS_Thickness_IsbL-1000to0850_RLatLon0.09_PT022H.grib2 2026-04-14 20:44 188K
20260414T18Z_MSC_RDPS_TotalCloudCover_Sfc_RLatLon0.09_PT022H.grib2 2026-04-14 20:44 657K
20260414T18Z_MSC_RDPS_TotalTotalsIndex_Sfc_RLatLon0.09_PT022H.grib2 2026-04-14 20:44 2.4M
20260414T18Z_MSC_RDPS_UVIndex-ClearSky_Sfc_RLatLon0.09_PT022H.grib2 2026-04-14 20:44 191K
20260414T18Z_MSC_RDPS_UVIndex_Sfc_RLatLon0.09_PT022H.grib2 2026-04-14 20:44 433K
20260414T18Z_MSC_RDPS_UpwardLongwaveRadiationFlux_NTAtm_RLatLon0.09_PT022H.grib2 2026-04-14 20:44 474K
20260414T18Z_MSC_RDPS_UpwardShortwaveRadiationFlux_NTAtm_RLatLon0.09_PT022H.grib2 2026-04-14 20:44 487K
20260414T18Z_MSC_RDPS_VerticalVelocity_IsbL-0250_RLatLon0.09_PT022H.grib2 2026-04-14 20:44 536K
20260414T18Z_MSC_RDPS_VerticalVelocity_IsbL-0500_RLatLon0.09_PT022H.grib2 2026-04-14 20:44 560K
20260414T18Z_MSC_RDPS_VerticalVelocity_IsbL-0700_RLatLon0.09_PT022H.grib2 2026-04-14 20:44 604K
20260414T18Z_MSC_RDPS_VerticalVelocity_IsbL-0850_RLatLon0.09_PT022H.grib2 2026-04-14 20:44 827K
20260414T18Z_MSC_RDPS_VerticalWindShear_EtaL-6500_RLatLon0.09_PT022H.grib2 2026-04-14 20:44 1.2M
20260414T18Z_MSC_RDPS_WindChill_Sfc_RLatLon0.09_PT022H.grib2 2026-04-14 20:44 1.2M
20260414T18Z_MSC_RDPS_WindDir_AGL-10m_RLatLon0.09_PT022H.grib2 2026-04-14 20:44 972K
20260414T18Z_MSC_RDPS_WindDir_AGL-120m_RLatLon0.09_PT022H.grib2 2026-04-14 20:44 610K
20260414T18Z_MSC_RDPS_WindDir_AGL-40m_RLatLon0.09_PT022H.grib2 2026-04-14 20:44 634K
20260414T18Z_MSC_RDPS_WindDir_AGL-80m_RLatLon0.09_PT022H.grib2 2026-04-14 20:44 620K
20260414T18Z_MSC_RDPS_WindDir_IsbL-0001_RLatLon0.09_PT022H.grib2 2026-04-14 20:44 262K
20260414T18Z_MSC_RDPS_WindDir_IsbL-0005_RLatLon0.09_PT022H.grib2 2026-04-14 20:44 323K
20260414T18Z_MSC_RDPS_WindDir_IsbL-0010_RLatLon0.09_PT022H.grib2 2026-04-14 20:44 350K
20260414T18Z_MSC_RDPS_WindDir_IsbL-0020_RLatLon0.09_PT022H.grib2 2026-04-14 20:44 373K
20260414T18Z_MSC_RDPS_WindDir_IsbL-0030_RLatLon0.09_PT022H.grib2 2026-04-14 20:44 376K
20260414T18Z_MSC_RDPS_WindDir_IsbL-0050_RLatLon0.09_PT022H.grib2 2026-04-14 20:44 390K
20260414T18Z_MSC_RDPS_WindDir_IsbL-0100_RLatLon0.09_PT022H.grib2 2026-04-14 20:44 378K
20260414T18Z_MSC_RDPS_WindDir_IsbL-0150_RLatLon0.09_PT022H.grib2 2026-04-14 20:44 366K
20260414T18Z_MSC_RDPS_WindDir_IsbL-0175_RLatLon0.09_PT022H.grib2 2026-04-14 20:44 390K
20260414T18Z_MSC_RDPS_WindDir_IsbL-0200_RLatLon0.09_PT022H.grib2 2026-04-14 20:44 410K
20260414T18Z_MSC_RDPS_WindDir_IsbL-0225_RLatLon0.09_PT022H.grib2 2026-04-14 20:44 421K
20260414T18Z_MSC_RDPS_WindDir_IsbL-0250_RLatLon0.09_PT022H.grib2 2026-04-14 20:44 428K
20260414T18Z_MSC_RDPS_WindDir_IsbL-0275_RLatLon0.09_PT022H.grib2 2026-04-14 20:44 455K
20260414T18Z_MSC_RDPS_WindDir_IsbL-0300_RLatLon0.09_PT022H.grib2 2026-04-14 20:44 456K
20260414T18Z_MSC_RDPS_WindDir_IsbL-0350_RLatLon0.09_PT022H.grib2 2026-04-14 20:44 482K
20260414T18Z_MSC_RDPS_WindDir_IsbL-0400_RLatLon0.09_PT022H.grib2 2026-04-14 20:44 497K
20260414T18Z_MSC_RDPS_WindDir_IsbL-0450_RLatLon0.09_PT022H.grib2 2026-04-14 20:44 522K
20260414T18Z_MSC_RDPS_WindDir_IsbL-0500_RLatLon0.09_PT022H.grib2 2026-04-14 20:44 543K
20260414T18Z_MSC_RDPS_WindDir_IsbL-0550_RLatLon0.09_PT022H.grib2 2026-04-14 20:44 557K
20260414T18Z_MSC_RDPS_WindDir_IsbL-0600_RLatLon0.09_PT022H.grib2 2026-04-14 20:44 585K
20260414T18Z_MSC_RDPS_WindDir_IsbL-0650_RLatLon0.09_PT022H.grib2 2026-04-14 20:44 623K
20260414T18Z_MSC_RDPS_WindDir_IsbL-0700_RLatLon0.09_PT022H.grib2 2026-04-14 20:44 663K
20260414T18Z_MSC_RDPS_WindDir_IsbL-0750_RLatLon0.09_PT022H.grib2 2026-04-14 20:44 708K
20260414T18Z_MSC_RDPS_WindDir_IsbL-0800_RLatLon0.09_PT022H.grib2 2026-04-14 20:44 771K
20260414T18Z_MSC_RDPS_WindDir_IsbL-0850_RLatLon0.09_PT022H.grib2 2026-04-14 20:44 839K
20260414T18Z_MSC_RDPS_WindDir_IsbL-0875_RLatLon0.09_PT022H.grib2 2026-04-14 20:44 868K
20260414T18Z_MSC_RDPS_WindDir_IsbL-0900_RLatLon0.09_PT022H.grib2 2026-04-14 20:44 892K
20260414T18Z_MSC_RDPS_WindDir_IsbL-0925_RLatLon0.09_PT022H.grib2 2026-04-14 20:44 907K
20260414T18Z_MSC_RDPS_WindDir_IsbL-0950_RLatLon0.09_PT022H.grib2 2026-04-14 20:44 916K
20260414T18Z_MSC_RDPS_WindDir_IsbL-0970_RLatLon0.09_PT022H.grib2 2026-04-14 20:44 924K
20260414T18Z_MSC_RDPS_WindDir_IsbL-0985_RLatLon0.09_PT022H.grib2 2026-04-14 20:44 932K
20260414T18Z_MSC_RDPS_WindDir_IsbL-1000_RLatLon0.09_PT022H.grib2 2026-04-14 20:44 942K
20260414T18Z_MSC_RDPS_WindDir_IsbL-1015_RLatLon0.09_PT022H.grib2 2026-04-14 20:44 959K
20260414T18Z_MSC_RDPS_WindGust-Max_AGL-10m_RLatLon0.09_PT022H.grib2 2026-04-14 20:44 1.0M
20260414T18Z_MSC_RDPS_WindGust-Min_AGL-10m_RLatLon0.09_PT022H.grib2 2026-04-14 20:44 1.0M
20260414T18Z_MSC_RDPS_WindGust_AGL-10m_RLatLon0.09_PT022H.grib2 2026-04-14 20:44 1.0M
20260414T18Z_MSC_RDPS_WindSpeed_AGL-10m_RLatLon0.09_PT022H.grib2 2026-04-14 20:44 846K
20260414T18Z_MSC_RDPS_WindSpeed_AGL-120m_RLatLon0.09_PT022H.grib2 2026-04-14 20:44 670K
20260414T18Z_MSC_RDPS_WindSpeed_AGL-40m_RLatLon0.09_PT022H.grib2 2026-04-14 20:44 672K
20260414T18Z_MSC_RDPS_WindSpeed_AGL-80m_RLatLon0.09_PT022H.grib2 2026-04-14 20:44 670K
20260414T18Z_MSC_RDPS_WindSpeed_IsbL-0001_RLatLon0.09_PT022H.grib2 2026-04-14 20:44 250K
20260414T18Z_MSC_RDPS_WindSpeed_IsbL-0005_RLatLon0.09_PT022H.grib2 2026-04-14 20:44 306K
20260414T18Z_MSC_RDPS_WindSpeed_IsbL-0010_RLatLon0.09_PT022H.grib2 2026-04-14 20:44 346K
20260414T18Z_MSC_RDPS_WindSpeed_IsbL-0020_RLatLon0.09_PT022H.grib2 2026-04-14 20:44 363K
20260414T18Z_MSC_RDPS_WindSpeed_IsbL-0030_RLatLon0.09_PT022H.grib2 2026-04-14 20:44 330K
20260414T18Z_MSC_RDPS_WindSpeed_IsbL-0050_RLatLon0.09_PT022H.grib2 2026-04-14 20:44 372K
20260414T18Z_MSC_RDPS_WindSpeed_IsbL-0100_RLatLon0.09_PT022H.grib2 2026-04-14 20:44 481K
20260414T18Z_MSC_RDPS_WindSpeed_IsbL-0150_RLatLon0.09_PT022H.grib2 2026-04-14 20:44 362K
20260414T18Z_MSC_RDPS_WindSpeed_IsbL-0175_RLatLon0.09_PT022H.grib2 2026-04-14 20:44 386K
20260414T18Z_MSC_RDPS_WindSpeed_IsbL-0200_RLatLon0.09_PT022H.grib2 2026-04-14 20:44 425K
20260414T18Z_MSC_RDPS_WindSpeed_IsbL-0225_RLatLon0.09_PT022H.grib2 2026-04-14 20:44 433K
20260414T18Z_MSC_RDPS_WindSpeed_IsbL-0250_RLatLon0.09_PT022H.grib2 2026-04-14 20:44 439K
20260414T18Z_MSC_RDPS_WindSpeed_IsbL-0275_RLatLon0.09_PT022H.grib2 2026-04-14 20:44 456K
20260414T18Z_MSC_RDPS_WindSpeed_IsbL-0300_RLatLon0.09_PT022H.grib2 2026-04-14 20:44 435K
20260414T18Z_MSC_RDPS_WindSpeed_IsbL-0350_RLatLon0.09_PT022H.grib2 2026-04-14 20:44 449K
20260414T18Z_MSC_RDPS_WindSpeed_IsbL-0400_RLatLon0.09_PT022H.grib2 2026-04-14 20:44 449K
20260414T18Z_MSC_RDPS_WindSpeed_IsbL-0450_RLatLon0.09_PT022H.grib2 2026-04-14 20:44 450K
20260414T18Z_MSC_RDPS_WindSpeed_IsbL-0500_RLatLon0.09_PT022H.grib2 2026-04-14 20:44 450K
20260414T18Z_MSC_RDPS_WindSpeed_IsbL-0550_RLatLon0.09_PT022H.grib2 2026-04-14 20:44 568K
20260414T18Z_MSC_RDPS_WindSpeed_IsbL-0600_RLatLon0.09_PT022H.grib2 2026-04-14 20:44 579K
20260414T18Z_MSC_RDPS_WindSpeed_IsbL-0650_RLatLon0.09_PT022H.grib2 2026-04-14 20:44 644K
20260414T18Z_MSC_RDPS_WindSpeed_IsbL-0700_RLatLon0.09_PT022H.grib2 2026-04-14 20:44 668K
20260414T18Z_MSC_RDPS_WindSpeed_IsbL-0750_RLatLon0.09_PT022H.grib2 2026-04-14 20:44 699K
20260414T18Z_MSC_RDPS_WindSpeed_IsbL-0800_RLatLon0.09_PT022H.grib2 2026-04-14 20:44 744K
20260414T18Z_MSC_RDPS_WindSpeed_IsbL-0850_RLatLon0.09_PT022H.grib2 2026-04-14 20:44 809K
20260414T18Z_MSC_RDPS_WindSpeed_IsbL-0875_RLatLon0.09_PT022H.grib2 2026-04-14 20:44 833K
20260414T18Z_MSC_RDPS_WindSpeed_IsbL-0900_RLatLon0.09_PT022H.grib2 2026-04-14 20:44 851K
20260414T18Z_MSC_RDPS_WindSpeed_IsbL-0925_RLatLon0.09_PT022H.grib2 2026-04-14 20:44 861K
20260414T18Z_MSC_RDPS_WindSpeed_IsbL-0950_RLatLon0.09_PT022H.grib2 2026-04-14 20:44 860K
20260414T18Z_MSC_RDPS_WindSpeed_IsbL-0970_RLatLon0.09_PT022H.grib2 2026-04-14 20:44 861K
20260414T18Z_MSC_RDPS_WindSpeed_IsbL-0985_RLatLon0.09_PT022H.grib2 2026-04-14 20:44 857K
20260414T18Z_MSC_RDPS_WindSpeed_IsbL-1000_RLatLon0.09_PT022H.grib2 2026-04-14 20:44 853K
20260414T18Z_MSC_RDPS_WindSpeed_IsbL-1015_RLatLon0.09_PT022H.grib2 2026-04-14 20:44 845K
20260414T18Z_MSC_RDPS_WindU_AGL-10m_RLatLon0.09_PT022H.grib2 2026-04-14 20:44 436K
20260414T18Z_MSC_RDPS_WindU_AGL-120m_RLatLon0.09_PT022H.grib2 2026-04-14 20:44 537K
20260414T18Z_MSC_RDPS_WindU_AGL-40m_RLatLon0.09_PT022H.grib2 2026-04-14 20:44 540K
20260414T18Z_MSC_RDPS_WindU_AGL-80m_RLatLon0.09_PT022H.grib2 2026-04-14 20:44 539K
20260414T18Z_MSC_RDPS_WindU_IsbL-0001_RLatLon0.09_PT022H.grib2 2026-04-14 20:44 289K
20260414T18Z_MSC_RDPS_WindU_IsbL-0005_RLatLon0.09_PT022H.grib2 2026-04-14 20:44 300K
20260414T18Z_MSC_RDPS_WindU_IsbL-0010_RLatLon0.09_PT022H.grib2 2026-04-14 20:44 311K
20260414T18Z_MSC_RDPS_WindU_IsbL-0020_RLatLon0.09_PT022H.grib2 2026-04-14 20:44 328K
20260414T18Z_MSC_RDPS_WindU_IsbL-0030_RLatLon0.09_PT022H.grib2 2026-04-14 20:44 331K
20260414T18Z_MSC_RDPS_WindU_IsbL-0050_RLatLon0.09_PT022H.grib2 2026-04-14 20:44 363K
20260414T18Z_MSC_RDPS_WindU_IsbL-0100_RLatLon0.09_PT022H.grib2 2026-04-14 20:44 437K
20260414T18Z_MSC_RDPS_WindU_IsbL-0150_RLatLon0.09_PT022H.grib2 2026-04-14 20:44 382K
20260414T18Z_MSC_RDPS_WindU_IsbL-0175_RLatLon0.09_PT022H.grib2 2026-04-14 20:44 403K
20260414T18Z_MSC_RDPS_WindU_IsbL-0200_RLatLon0.09_PT022H.grib2 2026-04-14 20:44 420K
20260414T18Z_MSC_RDPS_WindU_IsbL-0225_RLatLon0.09_PT022H.grib2 2026-04-14 20:44 330K
20260414T18Z_MSC_RDPS_WindU_IsbL-0250_RLatLon0.09_PT022H.grib2 2026-04-14 20:44 334K
20260414T18Z_MSC_RDPS_WindU_IsbL-0275_RLatLon0.09_PT022H.grib2 2026-04-14 20:44 348K
20260414T18Z_MSC_RDPS_WindU_IsbL-0300_RLatLon0.09_PT022H.grib2 2026-04-14 20:44 344K
20260414T18Z_MSC_RDPS_WindU_IsbL-0350_RLatLon0.09_PT022H.grib2 2026-04-14 20:44 353K
20260414T18Z_MSC_RDPS_WindU_IsbL-0400_RLatLon0.09_PT022H.grib2 2026-04-14 20:44 455K
20260414T18Z_MSC_RDPS_WindU_IsbL-0450_RLatLon0.09_PT022H.grib2 2026-04-14 20:44 455K
20260414T18Z_MSC_RDPS_WindU_IsbL-0500_RLatLon0.09_PT022H.grib2 2026-04-14 20:44 458K
20260414T18Z_MSC_RDPS_WindU_IsbL-0550_RLatLon0.09_PT022H.grib2 2026-04-14 20:44 460K
20260414T18Z_MSC_RDPS_WindU_IsbL-0600_RLatLon0.09_PT022H.grib2 2026-04-14 20:44 469K
20260414T18Z_MSC_RDPS_WindU_IsbL-0650_RLatLon0.09_PT022H.grib2 2026-04-14 20:44 488K
20260414T18Z_MSC_RDPS_WindU_IsbL-0700_RLatLon0.09_PT022H.grib2 2026-04-14 20:44 495K
20260414T18Z_MSC_RDPS_WindU_IsbL-0750_RLatLon0.09_PT022H.grib2 2026-04-14 20:44 522K
20260414T18Z_MSC_RDPS_WindU_IsbL-0800_RLatLon0.09_PT022H.grib2 2026-04-14 20:44 699K
20260414T18Z_MSC_RDPS_WindU_IsbL-0850_RLatLon0.09_PT022H.grib2 2026-04-14 20:44 758K
20260414T18Z_MSC_RDPS_WindU_IsbL-0875_RLatLon0.09_PT022H.grib2 2026-04-14 20:44 780K
20260414T18Z_MSC_RDPS_WindU_IsbL-0900_RLatLon0.09_PT022H.grib2 2026-04-14 20:44 794K
20260414T18Z_MSC_RDPS_WindU_IsbL-0925_RLatLon0.09_PT022H.grib2 2026-04-14 20:44 801K
20260414T18Z_MSC_RDPS_WindU_IsbL-0950_RLatLon0.09_PT022H.grib2 2026-04-14 20:44 799K
20260414T18Z_MSC_RDPS_WindU_IsbL-0970_RLatLon0.09_PT022H.grib2 2026-04-14 20:44 798K
20260414T18Z_MSC_RDPS_WindU_IsbL-0985_RLatLon0.09_PT022H.grib2 2026-04-14 20:44 795K
20260414T18Z_MSC_RDPS_WindU_IsbL-1000_RLatLon0.09_PT022H.grib2 2026-04-14 20:44 839K
20260414T18Z_MSC_RDPS_WindU_IsbL-1015_RLatLon0.09_PT022H.grib2 2026-04-14 20:44 834K
20260414T18Z_MSC_RDPS_WindV_AGL-10m_RLatLon0.09_PT022H.grib2 2026-04-14 20:44 435K
20260414T18Z_MSC_RDPS_WindV_AGL-120m_RLatLon0.09_PT022H.grib2 2026-04-14 20:44 536K
20260414T18Z_MSC_RDPS_WindV_AGL-40m_RLatLon0.09_PT022H.grib2 2026-04-14 20:44 538K
20260414T18Z_MSC_RDPS_WindV_AGL-80m_RLatLon0.09_PT022H.grib2 2026-04-14 20:44 537K
20260414T18Z_MSC_RDPS_WindV_IsbL-0001_RLatLon0.09_PT022H.grib2 2026-04-14 20:44 210K
20260414T18Z_MSC_RDPS_WindV_IsbL-0005_RLatLon0.09_PT022H.grib2 2026-04-14 20:44 235K
20260414T18Z_MSC_RDPS_WindV_IsbL-0010_RLatLon0.09_PT022H.grib2 2026-04-14 20:44 310K
20260414T18Z_MSC_RDPS_WindV_IsbL-0020_RLatLon0.09_PT022H.grib2 2026-04-14 20:44 356K
20260414T18Z_MSC_RDPS_WindV_IsbL-0030_RLatLon0.09_PT022H.grib2 2026-04-14 20:44 360K
20260414T18Z_MSC_RDPS_WindV_IsbL-0050_RLatLon0.09_PT022H.grib2 2026-04-14 20:44 361K
20260414T18Z_MSC_RDPS_WindV_IsbL-0100_RLatLon0.09_PT022H.grib2 2026-04-14 20:44 430K
20260414T18Z_MSC_RDPS_WindV_IsbL-0150_RLatLon0.09_PT022H.grib2 2026-04-14 20:44 378K
20260414T18Z_MSC_RDPS_WindV_IsbL-0175_RLatLon0.09_PT022H.grib2 2026-04-14 20:44 401K
20260414T18Z_MSC_RDPS_WindV_IsbL-0200_RLatLon0.09_PT022H.grib2 2026-04-14 20:44 323K
20260414T18Z_MSC_RDPS_WindV_IsbL-0225_RLatLon0.09_PT022H.grib2 2026-04-14 20:44 328K
20260414T18Z_MSC_RDPS_WindV_IsbL-0250_RLatLon0.09_PT022H.grib2 2026-04-14 20:44 332K
20260414T18Z_MSC_RDPS_WindV_IsbL-0275_RLatLon0.09_PT022H.grib2 2026-04-14 20:44 345K
20260414T18Z_MSC_RDPS_WindV_IsbL-0300_RLatLon0.09_PT022H.grib2 2026-04-14 20:44 342K
20260414T18Z_MSC_RDPS_WindV_IsbL-0350_RLatLon0.09_PT022H.grib2 2026-04-14 20:44 350K
20260414T18Z_MSC_RDPS_WindV_IsbL-0400_RLatLon0.09_PT022H.grib2 2026-04-14 20:44 350K
20260414T18Z_MSC_RDPS_WindV_IsbL-0450_RLatLon0.09_PT022H.grib2 2026-04-14 20:44 454K
20260414T18Z_MSC_RDPS_WindV_IsbL-0500_RLatLon0.09_PT022H.grib2 2026-04-14 20:44 455K
20260414T18Z_MSC_RDPS_WindV_IsbL-0550_RLatLon0.09_PT022H.grib2 2026-04-14 20:44 456K
20260414T18Z_MSC_RDPS_WindV_IsbL-0600_RLatLon0.09_PT022H.grib2 2026-04-14 20:44 465K
20260414T18Z_MSC_RDPS_WindV_IsbL-0650_RLatLon0.09_PT022H.grib2 2026-04-14 20:44 484K
20260414T18Z_MSC_RDPS_WindV_IsbL-0700_RLatLon0.09_PT022H.grib2 2026-04-14 20:44 490K
20260414T18Z_MSC_RDPS_WindV_IsbL-0750_RLatLon0.09_PT022H.grib2 2026-04-14 20:44 516K
20260414T18Z_MSC_RDPS_WindV_IsbL-0800_RLatLon0.09_PT022H.grib2 2026-04-14 20:44 564K
20260414T18Z_MSC_RDPS_WindV_IsbL-0850_RLatLon0.09_PT022H.grib2 2026-04-14 20:44 618K
20260414T18Z_MSC_RDPS_WindV_IsbL-0875_RLatLon0.09_PT022H.grib2 2026-04-14 20:44 637K
20260414T18Z_MSC_RDPS_WindV_IsbL-0900_RLatLon0.09_PT022H.grib2 2026-04-14 20:44 652K
20260414T18Z_MSC_RDPS_WindV_IsbL-0925_RLatLon0.09_PT022H.grib2 2026-04-14 20:44 659K
20260414T18Z_MSC_RDPS_WindV_IsbL-0950_RLatLon0.09_PT022H.grib2 2026-04-14 20:44 657K
20260414T18Z_MSC_RDPS_WindV_IsbL-0970_RLatLon0.09_PT022H.grib2 2026-04-14 20:44 798K
20260414T18Z_MSC_RDPS_WindV_IsbL-0985_RLatLon0.09_PT022H.grib2 2026-04-14 20:44 796K
20260414T18Z_MSC_RDPS_WindV_IsbL-1000_RLatLon0.09_PT022H.grib2 2026-04-14 20:44 793K
20260414T18Z_MSC_RDPS_WindV_IsbL-1015_RLatLon0.09_PT022H.grib2 2026-04-14 20:44 832K